sensor_id;sensor_type;location;lat;lon;timestamp;temperature;humidity
45012;DHT22;63444;48.148;11.542;2022-10-16T00:01:35;15.20;99.90
45012;DHT22;63444;48.148;11.542;2022-10-16T00:04:01;15.20;99.90
45012;DHT22;63444;48.148;11.542;2022-10-16T00:06:28;15.20;99.90
45012;DHT22;63444;48.148;11.542;2022-10-16T00:08:54;15.10;99.90
45012;DHT22;63444;48.148;11.542;2022-10-16T00:11:24;15.10;99.90
45012;DHT22;63444;48.148;11.542;2022-10-16T00:13:54;15.10;99.90
45012;DHT22;63444;48.148;11.542;2022-10-16T00:16:20;15.10;99.90
45012;DHT22;63444;48.148;11.542;2022-10-16T00:18:46;15.10;99.90
45012;DHT22;63444;48.148;11.542;2022-10-16T00:21:16;15.10;99.90
45012;DHT22;63444;48.148;11.542;2022-10-16T00:23:42;15.10;99.90
45012;DHT22;63444;48.148;11.542;2022-10-16T00:26:11;15.10;99.90
45012;DHT22;63444;48.148;11.542;2022-10-16T00:28:37;15.00;99.90
45012;DHT22;63444;48.148;11.542;2022-10-16T00:31:05;14.90;99.90
45012;DHT22;63444;48.148;11.542;2022-10-16T00:33:30;14.80;99.90
45012;DHT22;63444;48.148;11.542;2022-10-16T00:35:59;14.80;99.90
45012;DHT22;63444;48.148;11.542;2022-10-16T00:38:25;14.80;99.90
45012;DHT22;63444;48.148;11.542;2022-10-16T00:40:51;14.80;99.90
45012;DHT22;63444;48.148;11.542;2022-10-16T00:46:08;14.70;99.90
45012;DHT22;63444;48.148;11.542;2022-10-16T00:48:36;14.70;99.90
45012;DHT22;63444;48.148;11.542;2022-10-16T00:51:01;14.60;99.90
45012;DHT22;63444;48.148;11.542;2022-10-16T00:53:27;14.60;99.90
45012;DHT22;63444;48.148;11.542;2022-10-16T00:55:53;14.60;99.90
45012;DHT22;63444;48.148;11.542;2022-10-16T00:58:20;14.60;99.90
45012;DHT22;63444;48.148;11.542;2022-10-16T01:00:45;14.60;99.90
45012;DHT22;63444;48.148;11.542;2022-10-16T01:08:58;14.60;99.90
45012;DHT22;63444;48.148;11.542;2022-10-16T01:11:38;14.70;99.90
45012;DHT22;63444;48.148;11.542;2022-10-16T01:14:15;14.60;99.90
45012;DHT22;63444;48.148;11.542;2022-10-16T01:16:50;14.50;99.90
45012;DHT22;63444;48.148;11.542;2022-10-16T01:22:24;14.50;99.90
45012;DHT22;63444;48.148;11.542;2022-10-16T01:24:54;14.50;99.90
45012;DHT22;63444;48.148;11.542;2022-10-16T01:27:28;14.50;99.90
45012;DHT22;63444;48.148;11.542;2022-10-16T01:32:35;14.40;99.90
45012;DHT22;63444;48.148;11.542;2022-10-16T01:35:32;14.40;99.90
45012;DHT22;63444;48.148;11.542;2022-10-16T01:38:24;14.40;99.90
45012;DHT22;63444;48.148;11.542;2022-10-16T01:40:56;14.40;99.90
45012;DHT22;63444;48.148;11.542;2022-10-16T01:43:31;14.40;99.90
45012;DHT22;63444;48.148;11.542;2022-10-16T01:45:59;14.40;99.90
45012;DHT22;63444;48.148;11.542;2022-10-16T01:48:25;14.40;99.90
45012;DHT22;63444;48.148;11.542;2022-10-16T01:51:04;14.40;99.90
45012;DHT22;63444;48.148;11.542;2022-10-16T01:53:31;14.40;99.90
45012;DHT22;63444;48.148;11.542;2022-10-16T01:55:58;14.30;99.90
45012;DHT22;63444;48.148;11.542;2022-10-16T01:58:28;14.30;99.90
45012;DHT22;63444;48.148;11.542;2022-10-16T02:00:56;14.20;99.90
45012;DHT22;63444;48.148;11.542;2022-10-16T02:03:22;14.20;99.90
45012;DHT22;63444;48.148;11.542;2022-10-16T02:05:56;14.20;99.90
45012;DHT22;63444;48.148;11.542;2022-10-16T02:08:24;14.30;99.90
45012;DHT22;63444;48.148;11.542;2022-10-16T02:10:51;14.30;99.90
45012;DHT22;63444;48.148;11.542;2022-10-16T02:13:23;14.30;99.90
45012;DHT22;63444;48.148;11.542;2022-10-16T02:15:53;14.30;99.90
45012;DHT22;63444;48.148;11.542;2022-10-16T02:18:19;14.30;99.90
45012;DHT22;63444;48.148;11.542;2022-10-16T02:20:57;14.30;99.90
45012;DHT22;63444;48.148;11.542;2022-10-16T02:23:50;14.40;99.90
45012;DHT22;63444;48.148;11.542;2022-10-16T02:26:28;14.40;99.90
45012;DHT22;63444;48.148;11.542;2022-10-16T02:29:02;14.40;99.90
45012;DHT22;63444;48.148;11.542;2022-10-16T02:31:33;14.40;99.90
45012;DHT22;63444;48.148;11.542;2022-10-16T02:34:03;14.30;99.90
45012;DHT22;63444;48.148;11.542;2022-10-16T02:36:30;14.40;99.90
45012;DHT22;63444;48.148;11.542;2022-10-16T02:38:57;14.30;99.90
45012;DHT22;63444;48.148;11.542;2022-10-16T02:41:25;14.30;99.90
45012;DHT22;63444;48.148;11.542;2022-10-16T02:43:51;14.30;99.90
45012;DHT22;63444;48.148;11.542;2022-10-16T02:46:17;14.30;99.90
45012;DHT22;63444;48.148;11.542;2022-10-16T02:48:43;14.40;99.90
45012;DHT22;63444;48.148;11.542;2022-10-16T02:51:09;14.40;99.90
45012;DHT22;63444;48.148;11.542;2022-10-16T02:53:34;14.40;99.90
45012;DHT22;63444;48.148;11.542;2022-10-16T02:56:00;14.40;99.90
45012;DHT22;63444;48.148;11.542;2022-10-16T02:58:25;14.30;99.90
45012;DHT22;63444;48.148;11.542;2022-10-16T03:00:51;14.30;99.90
45012;DHT22;63444;48.148;11.542;2022-10-16T03:03:16;14.30;99.90
45012;DHT22;63444;48.148;11.542;2022-10-16T03:05:43;14.30;99.90
45012;DHT22;63444;48.148;11.542;2022-10-16T03:08:12;14.40;99.90
45012;DHT22;63444;48.148;11.542;2022-10-16T03:10:38;14.40;99.90
45012;DHT22;63444;48.148;11.542;2022-10-16T03:13:04;14.40;99.90
45012;DHT22;63444;48.148;11.542;2022-10-16T03:15:30;14.30;99.90
45012;DHT22;63444;48.148;11.542;2022-10-16T03:17:59;14.30;99.90
45012;DHT22;63444;48.148;11.542;2022-10-16T03:20:25;14.20;99.90
45012;DHT22;63444;48.148;11.542;2022-10-16T03:22:51;14.20;99.90
45012;DHT22;63444;48.148;11.542;2022-10-16T03:25:17;14.20;99.90
45012;DHT22;63444;48.148;11.542;2022-10-16T03:27:43;14.10;99.90
45012;DHT22;63444;48.148;11.542;2022-10-16T03:30:09;14.10;99.90
45012;DHT22;63444;48.148;11.542;2022-10-16T03:32:35;14.10;99.90
45012;DHT22;63444;48.148;11.542;2022-10-16T03:35:01;14.10;99.90
45012;DHT22;63444;48.148;11.542;2022-10-16T03:37:26;14.10;99.90
45012;DHT22;63444;48.148;11.542;2022-10-16T03:39:52;14.10;99.90
45012;DHT22;63444;48.148;11.542;2022-10-16T03:42:17;14.10;99.90
45012;DHT22;63444;48.148;11.542;2022-10-16T03:44:43;14.10;99.90
45012;DHT22;63444;48.148;11.542;2022-10-16T03:47:08;14.10;99.90
45012;DHT22;63444;48.148;11.542;2022-10-16T03:49:34;14.10;99.90
45012;DHT22;63444;48.148;11.542;2022-10-16T03:52:00;14.10;99.90
45012;DHT22;63444;48.148;11.542;2022-10-16T03:54:25;14.10;99.90
45012;DHT22;63444;48.148;11.542;2022-10-16T03:56:51;14.10;99.90
45012;DHT22;63444;48.148;11.542;2022-10-16T03:59:16;14.10;99.90
45012;DHT22;63444;48.148;11.542;2022-10-16T04:01:42;14.20;99.90
45012;DHT22;63444;48.148;11.542;2022-10-16T04:04:08;14.30;99.90
45012;DHT22;63444;48.148;11.542;2022-10-16T04:06:34;14.20;99.90
45012;DHT22;63444;48.148;11.542;2022-10-16T04:09:01;14.20;99.90
45012;DHT22;63444;48.148;11.542;2022-10-16T04:11:26;14.20;99.90
45012;DHT22;63444;48.148;11.542;2022-10-16T04:13:52;14.30;99.90
45012;DHT22;63444;48.148;11.542;2022-10-16T04:16:18;14.30;99.90
45012;DHT22;63444;48.148;11.542;2022-10-16T04:18:45;14.30;99.90
45012;DHT22;63444;48.148;11.542;2022-10-16T04:21:11;14.30;99.90
45012;DHT22;63444;48.148;11.542;2022-10-16T04:23:36;14.30;99.90
45012;DHT22;63444;48.148;11.542;2022-10-16T04:26:02;14.40;99.90
45012;DHT22;63444;48.148;11.542;2022-10-16T04:28:27;14.40;99.90
45012;DHT22;63444;48.148;11.542;2022-10-16T04:30:53;14.40;99.90
45012;DHT22;63444;48.148;11.542;2022-10-16T04:33:19;14.40;99.90
45012;DHT22;63444;48.148;11.542;2022-10-16T04:35:45;14.40;99.90
45012;DHT22;63444;48.148;11.542;2022-10-16T04:38:10;14.50;99.90
45012;DHT22;63444;48.148;11.542;2022-10-16T04:40:36;14.40;99.90
45012;DHT22;63444;48.148;11.542;2022-10-16T04:43:02;14.30;99.90
45012;DHT22;63444;48.148;11.542;2022-10-16T04:45:30;14.30;99.90
45012;DHT22;63444;48.148;11.542;2022-10-16T04:47:59;14.30;99.90
45012;DHT22;63444;48.148;11.542;2022-10-16T04:50:25;14.30;99.90
45012;DHT22;63444;48.148;11.542;2022-10-16T04:52:51;14.30;99.90
45012;DHT22;63444;48.148;11.542;2022-10-16T04:55:17;14.30;99.90
45012;DHT22;63444;48.148;11.542;2022-10-16T04:57:43;14.40;99.90
45012;DHT22;63444;48.148;11.542;2022-10-16T05:00:08;14.40;99.90
45012;DHT22;63444;48.148;11.542;2022-10-16T05:02:34;14.50;99.90
45012;DHT22;63444;48.148;11.542;2022-10-16T05:05:00;14.40;99.90
45012;DHT22;63444;48.148;11.542;2022-10-16T05:07:25;14.40;99.90
45012;DHT22;63444;48.148;11.542;2022-10-16T05:09:51;14.30;99.90
45012;DHT22;63444;48.148;11.542;2022-10-16T05:12:17;14.30;99.90
45012;DHT22;63444;48.148;11.542;2022-10-16T05:14:43;14.30;99.90
45012;DHT22;63444;48.148;11.542;2022-10-16T05:17:08;14.30;99.90
45012;DHT22;63444;48.148;11.542;2022-10-16T05:19:34;14.30;99.90
45012;DHT22;63444;48.148;11.542;2022-10-16T05:22:00;14.20;99.90
45012;DHT22;63444;48.148;11.542;2022-10-16T05:24:27;14.20;99.90
45012;DHT22;63444;48.148;11.542;2022-10-16T05:26:53;14.30;99.90
45012;DHT22;63444;48.148;11.542;2022-10-16T05:29:19;14.30;99.90
45012;DHT22;63444;48.148;11.542;2022-10-16T05:31:44;14.30;99.90
45012;DHT22;63444;48.148;11.542;2022-10-16T05:34:10;14.30;99.90
45012;DHT22;63444;48.148;11.542;2022-10-16T05:36:36;14.30;99.90
45012;DHT22;63444;48.148;11.542;2022-10-16T05:39:01;14.30;99.90
45012;DHT22;63444;48.148;11.542;2022-10-16T05:41:27;14.40;99.90
45012;DHT22;63444;48.148;11.542;2022-10-16T05:43:53;14.40;99.90
45012;DHT22;63444;48.148;11.542;2022-10-16T05:46:18;14.40;99.90
45012;DHT22;63444;48.148;11.542;2022-10-16T05:48:44;14.40;99.90
45012;DHT22;63444;48.148;11.542;2022-10-16T05:51:12;14.50;99.90
45012;DHT22;63444;48.148;11.542;2022-10-16T05:53:39;14.50;99.90
45012;DHT22;63444;48.148;11.542;2022-10-16T05:56:06;14.40;99.90
45012;DHT22;63444;48.148;11.542;2022-10-16T05:58:35;14.50;99.90
45012;DHT22;63444;48.148;11.542;2022-10-16T06:01:13;14.50;99.90
45012;DHT22;63444;48.148;11.542;2022-10-16T06:03:39;14.50;99.90
45012;DHT22;63444;48.148;11.542;2022-10-16T06:06:13;14.60;99.90
45012;DHT22;63444;48.148;11.542;2022-10-16T06:08:40;14.60;99.90
45012;DHT22;63444;48.148;11.542;2022-10-16T06:11:09;14.50;99.90
45012;DHT22;63444;48.148;11.542;2022-10-16T06:13:35;14.60;99.90
45012;DHT22;63444;48.148;11.542;2022-10-16T06:16:02;14.60;99.90
45012;DHT22;63444;48.148;11.542;2022-10-16T06:18:28;14.60;99.90
45012;DHT22;63444;48.148;11.542;2022-10-16T06:20:55;14.60;99.90
45012;DHT22;63444;48.148;11.542;2022-10-16T06:23:22;14.60;99.90
45012;DHT22;63444;48.148;11.542;2022-10-16T06:25:49;14.60;99.90
45012;DHT22;63444;48.148;11.542;2022-10-16T06:28:15;14.60;99.90
45012;DHT22;63444;48.148;11.542;2022-10-16T06:30:41;14.60;99.90
45012;DHT22;63444;48.148;11.542;2022-10-16T06:33:09;14.70;99.90
45012;DHT22;63444;48.148;11.542;2022-10-16T06:35:35;14.70;99.90
45012;DHT22;63444;48.148;11.542;2022-10-16T06:38:00;14.80;99.90
45012;DHT22;63444;48.148;11.542;2022-10-16T06:40:27;14.70;99.90
45012;DHT22;63444;48.148;11.542;2022-10-16T06:42:55;14.80;99.90
45012;DHT22;63444;48.148;11.542;2022-10-16T06:45:20;14.70;99.90
45012;DHT22;63444;48.148;11.542;2022-10-16T06:47:46;14.70;99.90
45012;DHT22;63444;48.148;11.542;2022-10-16T06:50:11;14.70;99.90
45012;DHT22;63444;48.148;11.542;2022-10-16T06:52:37;14.80;99.90
45012;DHT22;63444;48.148;11.542;2022-10-16T06:55:03;14.80;99.90
45012;DHT22;63444;48.148;11.542;2022-10-16T06:57:29;14.90;99.90
45012;DHT22;63444;48.148;11.542;2022-10-16T06:59:54;14.90;99.90
45012;DHT22;63444;48.148;11.542;2022-10-16T07:02:20;14.80;99.90
45012;DHT22;63444;48.148;11.542;2022-10-16T07:04:46;14.90;99.90
45012;DHT22;63444;48.148;11.542;2022-10-16T07:07:11;14.90;99.90
45012;DHT22;63444;48.148;11.542;2022-10-16T07:09:37;15.00;99.90
45012;DHT22;63444;48.148;11.542;2022-10-16T07:12:03;15.00;99.90
45012;DHT22;63444;48.148;11.542;2022-10-16T07:14:29;15.10;99.90
45012;DHT22;63444;48.148;11.542;2022-10-16T07:16:56;15.10;99.90
45012;DHT22;63444;48.148;11.542;2022-10-16T07:19:22;15.30;99.90
45012;DHT22;63444;48.148;11.542;2022-10-16T07:21:49;15.50;99.90
45012;DHT22;63444;48.148;11.542;2022-10-16T07:24:15;15.60;99.90
45012;DHT22;63444;48.148;11.542;2022-10-16T07:26:42;15.70;99.90
45012;DHT22;63444;48.148;11.542;2022-10-16T07:29:17;15.80;99.90
45012;DHT22;63444;48.148;11.542;2022-10-16T07:31:43;15.90;99.90
45012;DHT22;63444;48.148;11.542;2022-10-16T07:34:10;15.90;99.90
45012;DHT22;63444;48.148;11.542;2022-10-16T07:36:36;16.00;99.90
45012;DHT22;63444;48.148;11.542;2022-10-16T07:39:02;16.10;99.90
45012;DHT22;63444;48.148;11.542;2022-10-16T07:41:27;16.30;99.90
45012;DHT22;63444;48.148;11.542;2022-10-16T07:43:54;16.50;99.90
45012;DHT22;63444;48.148;11.542;2022-10-16T07:46:21;16.70;99.90
45012;DHT22;63444;48.148;11.542;2022-10-16T07:48:47;16.90;99.90
45012;DHT22;63444;48.148;11.542;2022-10-16T07:51:16;16.90;99.90
45012;DHT22;63444;48.148;11.542;2022-10-16T07:53:43;17.00;99.90
45012;DHT22;63444;48.148;11.542;2022-10-16T07:56:09;17.00;99.90
45012;DHT22;63444;48.148;11.542;2022-10-16T07:58:35;16.90;99.90
45012;DHT22;63444;48.148;11.542;2022-10-16T08:01:14;16.90;99.90
45012;DHT22;63444;48.148;11.542;2022-10-16T08:03:45;16.80;99.90
45012;DHT22;63444;48.148;11.542;2022-10-16T08:06:11;16.80;99.90
45012;DHT22;63444;48.148;11.542;2022-10-16T08:08:36;16.80;99.90
45012;DHT22;63444;48.148;11.542;2022-10-16T08:11:02;16.90;99.90
45012;DHT22;63444;48.148;11.542;2022-10-16T08:13:29;17.10;99.90
45012;DHT22;63444;48.148;11.542;2022-10-16T08:15:55;17.50;99.90
45012;DHT22;63444;48.148;11.542;2022-10-16T08:18:21;17.90;99.90
45012;DHT22;63444;48.148;11.542;2022-10-16T08:20:47;18.50;99.90
45012;DHT22;63444;48.148;11.542;2022-10-16T08:23:14;19.10;99.90
45012;DHT22;63444;48.148;11.542;2022-10-16T08:25:40;19.70;99.90
45012;DHT22;63444;48.148;11.542;2022-10-16T08:28:08;20.10;99.90
45012;DHT22;63444;48.148;11.542;2022-10-16T08:30:34;20.50;99.90
45012;DHT22;63444;48.148;11.542;2022-10-16T08:33:00;20.90;99.90
45012;DHT22;63444;48.148;11.542;2022-10-16T08:35:26;21.30;99.90
45012;DHT22;63444;48.148;11.542;2022-10-16T08:37:52;21.70;99.90
45012;DHT22;63444;48.148;11.542;2022-10-16T08:40:32;22.10;99.90
45012;DHT22;63444;48.148;11.542;2022-10-16T08:43:06;22.50;99.90
45012;DHT22;63444;48.148;11.542;2022-10-16T08:48:35;23.50;99.90
45012;DHT22;63444;48.148;11.542;2022-10-16T08:51:10;24.00;99.90
45012;DHT22;63444;48.148;11.542;2022-10-16T08:53:56;24.40;99.90
45012;DHT22;63444;48.148;11.542;2022-10-16T08:56:22;24.90;99.90
45012;DHT22;63444;48.148;11.542;2022-10-16T08:58:49;25.50;99.90
45012;DHT22;63444;48.148;11.542;2022-10-16T09:01:17;25.90;99.90
45012;DHT22;63444;48.148;11.542;2022-10-16T09:11:53;27.10;99.50
45012;DHT22;63444;48.148;11.542;2022-10-16T09:20:18;27.90;96.30
45012;DHT22;63444;48.148;11.542;2022-10-16T09:22:44;28.10;95.80
45012;DHT22;63444;48.148;11.542;2022-10-16T09:25:13;28.30;95.60
45012;DHT22;63444;48.148;11.542;2022-10-16T09:27:39;28.40;94.60
45012;DHT22;63444;48.148;11.542;2022-10-16T09:30:17;28.30;94.80
45012;DHT22;63444;48.148;11.542;2022-10-16T09:32:44;28.10;95.10
45012;DHT22;63444;48.148;11.542;2022-10-16T09:35:21;28.10;94.40
45012;DHT22;63444;48.148;11.542;2022-10-16T09:37:51;28.00;94.20
45012;DHT22;63444;48.148;11.542;2022-10-16T09:40:26;27.90;93.60
45012;DHT22;63444;48.148;11.542;2022-10-16T09:42:57;27.70;93.80
45012;DHT22;63444;48.148;11.542;2022-10-16T09:45:26;27.70;93.80
45012;DHT22;63444;48.148;11.542;2022-10-16T09:47:51;27.70;93.80
45012;DHT22;63444;48.148;11.542;2022-10-16T09:50:26;27.80;92.90
45012;DHT22;63444;48.148;11.542;2022-10-16T09:53:25;27.80;94.10
45012;DHT22;63444;48.148;11.542;2022-10-16T09:55:53;28.00;93.70
45012;DHT22;63444;48.148;11.542;2022-10-16T09:58:23;28.10;93.50
45012;DHT22;63444;48.148;11.542;2022-10-16T10:00:52;28.30;93.40
45012;DHT22;63444;48.148;11.542;2022-10-16T10:03:39;28.50;93.80
45012;DHT22;63444;48.148;11.542;2022-10-16T10:06:22;28.60;93.50
45012;DHT22;63444;48.148;11.542;2022-10-16T10:09:03;28.90;93.50
45012;DHT22;63444;48.148;11.542;2022-10-16T10:16:47;29.50;90.70
45012;DHT22;63444;48.148;11.542;2022-10-16T10:19:18;29.60;89.90
45012;DHT22;63444;48.148;11.542;2022-10-16T10:21:44;29.70;89.90
45012;DHT22;63444;48.148;11.542;2022-10-16T10:24:15;29.80;87.70
45012;DHT22;63444;48.148;11.542;2022-10-16T10:30:05;30.00;89.10
45012;DHT22;63444;48.148;11.542;2022-10-16T10:38:09;30.40;86.80
45012;DHT22;63444;48.148;11.542;2022-10-16T10:43:28;30.50;85.10
45012;DHT22;63444;48.148;11.542;2022-10-16T10:46:04;30.60;85.20
45012;DHT22;63444;48.148;11.542;2022-10-16T10:56:50;31.00;82.40
45012;DHT22;63444;48.148;11.542;2022-10-16T11:02:37;30.90;77.00
45012;DHT22;63444;48.148;11.542;2022-10-16T11:07:38;30.90;77.90
45012;DHT22;63444;48.148;11.542;2022-10-16T11:10:21;30.90;77.80
45012;DHT22;63444;48.148;11.542;2022-10-16T11:12:52;30.90;75.90
45012;DHT22;63444;48.148;11.542;2022-10-16T11:15:31;31.00;78.50
45012;DHT22;63444;48.148;11.542;2022-10-16T11:18:04;31.00;79.30
45012;DHT22;63444;48.148;11.542;2022-10-16T11:20:39;31.10;79.80
45012;DHT22;63444;48.148;11.542;2022-10-16T11:23:28;31.10;79.10
45012;DHT22;63444;48.148;11.542;2022-10-16T11:25:59;31.10;78.70
45012;DHT22;63444;48.148;11.542;2022-10-16T11:28:34;31.10;78.20
45012;DHT22;63444;48.148;11.542;2022-10-16T11:31:37;31.10;75.60
45012;DHT22;63444;48.148;11.542;2022-10-16T11:34:31;31.10;76.50
45012;DHT22;63444;48.148;11.542;2022-10-16T11:37:38;31.10;77.40
45012;DHT22;63444;48.148;11.542;2022-10-16T11:40:21;31.10;76.40
45012;DHT22;63444;48.148;11.542;2022-10-16T11:42:57;31.10;74.70
45012;DHT22;63444;48.148;11.542;2022-10-16T11:45:34;31.10;75.10
45012;DHT22;63444;48.148;11.542;2022-10-16T11:48:04;31.10;73.60
45012;DHT22;63444;48.148;11.542;2022-10-16T11:50:45;31.10;72.70
45012;DHT22;63444;48.148;11.542;2022-10-16T11:55:44;31.10;69.90
45012;DHT22;63444;48.148;11.542;2022-10-16T11:58:39;31.10;70.90
45012;DHT22;63444;48.148;11.542;2022-10-16T12:01:33;31.10;72.70
45012;DHT22;63444;48.148;11.542;2022-10-16T12:06:55;31.30;70.70
45012;DHT22;63444;48.148;11.542;2022-10-16T12:09:26;31.50;69.60
45012;DHT22;63444;48.148;11.542;2022-10-16T12:11:53;31.80;70.60
45012;DHT22;63444;48.148;11.542;2022-10-16T12:14:32;32.30;70.20
45012;DHT22;63444;48.148;11.542;2022-10-16T12:17:24;33.40;68.00
45012;DHT22;63444;48.148;11.542;2022-10-16T12:20:18;34.80;66.20
45012;DHT22;63444;48.148;11.542;2022-10-16T12:22:49;36.80;61.80
45012;DHT22;63444;48.148;11.542;2022-10-16T12:28:00;39.70;56.70
45012;DHT22;63444;48.148;11.542;2022-10-16T12:30:29;40.20;54.70
45012;DHT22;63444;48.148;11.542;2022-10-16T12:33:18;40.80;53.30
45012;DHT22;63444;48.148;11.542;2022-10-16T12:35:48;41.70;49.80
45012;DHT22;63444;48.148;11.542;2022-10-16T12:38:15;42.20;47.50
45012;DHT22;63444;48.148;11.542;2022-10-16T12:40:42;43.00;47.10
45012;DHT22;63444;48.148;11.542;2022-10-16T12:43:26;43.90;45.20
45012;DHT22;63444;48.148;11.542;2022-10-16T12:48:38;43.50;42.10
45012;DHT22;63444;48.148;11.542;2022-10-16T12:51:39;42.40;42.90
45012;DHT22;63444;48.148;11.542;2022-10-16T12:54:15;41.10;43.50
45012;DHT22;63444;48.148;11.542;2022-10-16T13:02:49;36.60;47.60
45012;DHT22;63444;48.148;11.542;2022-10-16T13:21:25;31.90;56.20
45012;DHT22;63444;48.148;11.542;2022-10-16T13:24:06;31.50;56.60
45012;DHT22;63444;48.148;11.542;2022-10-16T13:26:52;31.20;57.20
45012;DHT22;63444;48.148;11.542;2022-10-16T13:29:19;30.80;57.30
45012;DHT22;63444;48.148;11.542;2022-10-16T13:31:45;30.60;57.40
45012;DHT22;63444;48.148;11.542;2022-10-16T13:34:16;30.30;57.80
45012;DHT22;63444;48.148;11.542;2022-10-16T13:36:49;30.10;57.90
45012;DHT22;63444;48.148;11.542;2022-10-16T13:39:35;29.80;58.40
45012;DHT22;63444;48.148;11.542;2022-10-16T13:42:38;29.60;59.60
45012;DHT22;63444;48.148;11.542;2022-10-16T13:44:58;29.40;60.40
45012;DHT22;63444;48.148;11.542;2022-10-16T13:47:27;29.30;60.30
45012;DHT22;63444;48.148;11.542;2022-10-16T13:52:29;29.00;60.70
45012;DHT22;63444;48.148;11.542;2022-10-16T13:54:54;28.90;61.10
45012;DHT22;63444;48.148;11.542;2022-10-16T13:57:22;28.80;63.50
45012;DHT22;63444;48.148;11.542;2022-10-16T13:59:49;28.70;61.30
45012;DHT22;63444;48.148;11.542;2022-10-16T14:04:52;28.50;61.70
45012;DHT22;63444;48.148;11.542;2022-10-16T14:07:25;28.40;63.00
45012;DHT22;63444;48.148;11.542;2022-10-16T14:09:52;28.40;63.00
45012;DHT22;63444;48.148;11.542;2022-10-16T14:12:18;28.30;62.80
45012;DHT22;63444;48.148;11.542;2022-10-16T14:14:50;28.20;62.30
45012;DHT22;63444;48.148;11.542;2022-10-16T14:17:38;28.10;62.10
45012;DHT22;63444;48.148;11.542;2022-10-16T14:20:14;28.00;62.00
45012;DHT22;63444;48.148;11.542;2022-10-16T14:22:42;27.90;62.60
45012;DHT22;63444;48.148;11.542;2022-10-16T14:30:23;27.60;63.00
45012;DHT22;63444;48.148;11.542;2022-10-16T14:33:06;27.60;64.00
45012;DHT22;63444;48.148;11.542;2022-10-16T14:35:44;27.50;64.80
45012;DHT22;63444;48.148;11.542;2022-10-16T14:38:20;27.50;66.30
45012;DHT22;63444;48.148;11.542;2022-10-16T14:40:48;27.40;70.10
45012;DHT22;63444;48.148;11.542;2022-10-16T14:43:21;27.20;70.10
45012;DHT22;63444;48.148;11.542;2022-10-16T14:45:53;27.10;69.40
45012;DHT22;63444;48.148;11.542;2022-10-16T14:48:20;27.00;68.10
45012;DHT22;63444;48.148;11.542;2022-10-16T14:50:46;26.90;70.50
45012;DHT22;63444;48.148;11.542;2022-10-16T14:53:12;26.80;70.20
45012;DHT22;63444;48.148;11.542;2022-10-16T14:55:38;26.70;70.40
45012;DHT22;63444;48.148;11.542;2022-10-16T14:58:04;26.60;72.20
45012;DHT22;63444;48.148;11.542;2022-10-16T15:00:30;26.50;72.20
45012;DHT22;63444;48.148;11.542;2022-10-16T15:02:55;26.50;73.20
45012;DHT22;63444;48.148;11.542;2022-10-16T15:05:26;26.50;73.90
45012;DHT22;63444;48.148;11.542;2022-10-16T15:07:53;26.40;73.60
45012;DHT22;63444;48.148;11.542;2022-10-16T15:10:21;26.40;73.10
45012;DHT22;63444;48.148;11.542;2022-10-16T15:12:47;26.30;74.60
45012;DHT22;63444;48.148;11.542;2022-10-16T15:17:41;26.30;73.40
45012;DHT22;63444;48.148;11.542;2022-10-16T15:20:07;26.30;72.70
45012;DHT22;63444;48.148;11.542;2022-10-16T15:22:32;26.20;72.40
45012;DHT22;63444;48.148;11.542;2022-10-16T15:24:58;26.20;72.80
45012;DHT22;63444;48.148;11.542;2022-10-16T15:27:23;26.10;73.20
45012;DHT22;63444;48.148;11.542;2022-10-16T15:29:49;26.00;72.40
45012;DHT22;63444;48.148;11.542;2022-10-16T15:32:14;26.00;73.40
45012;DHT22;63444;48.148;11.542;2022-10-16T15:34:40;25.90;73.90
45012;DHT22;63444;48.148;11.542;2022-10-16T15:37:06;25.90;74.40
45012;DHT22;63444;48.148;11.542;2022-10-16T15:39:31;25.80;74.80
45012;DHT22;63444;48.148;11.542;2022-10-16T15:41:57;25.80;75.40
45012;DHT22;63444;48.148;11.542;2022-10-16T15:44:22;25.70;76.20
45012;DHT22;63444;48.148;11.542;2022-10-16T15:46:50;25.60;76.90
45012;DHT22;63444;48.148;11.542;2022-10-16T15:49:19;25.60;77.60
45012;DHT22;63444;48.148;11.542;2022-10-16T15:51:45;25.50;78.00
45012;DHT22;63444;48.148;11.542;2022-10-16T15:54:11;25.50;78.70
45012;DHT22;63444;48.148;11.542;2022-10-16T15:56:37;25.40;79.70
45012;DHT22;63444;48.148;11.542;2022-10-16T15:59:02;25.40;80.30
45012;DHT22;63444;48.148;11.542;2022-10-16T16:01:28;25.30;80.80
45012;DHT22;63444;48.148;11.542;2022-10-16T16:03:57;25.20;81.90
45012;DHT22;63444;48.148;11.542;2022-10-16T16:06:22;25.20;82.90
45012;DHT22;63444;48.148;11.542;2022-10-16T16:08:49;25.10;83.00
45012;DHT22;63444;48.148;11.542;2022-10-16T16:11:16;25.00;83.80
45012;DHT22;63444;48.148;11.542;2022-10-16T16:13:42;25.00;84.50
45012;DHT22;63444;48.148;11.542;2022-10-16T16:16:14;24.90;84.80
45012;DHT22;63444;48.148;11.542;2022-10-16T16:18:40;24.80;86.00
45012;DHT22;63444;48.148;11.542;2022-10-16T16:21:06;24.80;86.60
45012;DHT22;63444;48.148;11.542;2022-10-16T16:23:31;24.70;88.30
45012;DHT22;63444;48.148;11.542;2022-10-16T16:26:18;24.60;88.90
45012;DHT22;63444;48.148;11.542;2022-10-16T16:28:46;24.50;89.70
45012;DHT22;63444;48.148;11.542;2022-10-16T16:31:12;24.40;90.00
45012;DHT22;63444;48.148;11.542;2022-10-16T16:33:38;24.40;90.20
45012;DHT22;63444;48.148;11.542;2022-10-16T16:36:05;24.20;90.30
45012;DHT22;63444;48.148;11.542;2022-10-16T16:38:32;24.20;89.80
45012;DHT22;63444;48.148;11.542;2022-10-16T16:40:58;24.10;90.70
45012;DHT22;63444;48.148;11.542;2022-10-16T16:43:27;24.00;90.90
45012;DHT22;63444;48.148;11.542;2022-10-16T16:45:54;23.90;90.60
45012;DHT22;63444;48.148;11.542;2022-10-16T16:48:20;23.90;90.80
45012;DHT22;63444;48.148;11.542;2022-10-16T16:50:46;23.80;90.30
45012;DHT22;63444;48.148;11.542;2022-10-16T16:53:12;23.70;90.70
45012;DHT22;63444;48.148;11.542;2022-10-16T16:55:37;23.60;91.10
45012;DHT22;63444;48.148;11.542;2022-10-16T16:58:04;23.60;91.20
45012;DHT22;63444;48.148;11.542;2022-10-16T17:00:30;23.60;91.00
45012;DHT22;63444;48.148;11.542;2022-10-16T17:02:56;23.50;91.50
45012;DHT22;63444;48.148;11.542;2022-10-16T17:05:22;23.40;91.20
45012;DHT22;63444;48.148;11.542;2022-10-16T17:07:48;23.30;90.80
45012;DHT22;63444;48.148;11.542;2022-10-16T17:10:13;23.20;90.80
45012;DHT22;63444;48.148;11.542;2022-10-16T17:12:39;23.10;90.90
45012;DHT22;63444;48.148;11.542;2022-10-16T17:15:05;23.10;91.10
45012;DHT22;63444;48.148;11.542;2022-10-16T17:17:31;23.00;91.30